Date,TemperatureHighF,TemperatureAvgF,TemperatureLowF,DewpointHighF,DewpointAvgF,DewpointLowF,HumidityHigh,HumidityAvg,HumidityLow,PressureMaxIn,PressureMinIn,WindSpeedMaxMPH,WindSpeedAvgMPH,GustSpeedMaxMPH,PrecipitationSumIn
2013-2-1,32.2,26.4,17.6,18.8,10.6,5.2,65,51,37,30.03,29.45,30,5,30,0.00
2013-2-2,27.5,20.6,10.4,16.8,9.1,5.6,87,62,41,30.19,30.02,9,1,15,0.00
2013-2-3,28.8,25.0,18.8,21.0,16.8,14.6,92,71,58,30.03,29.68,12,1,12,0.00
2013-2-4,31.5,24.5,16.5,16.9,9.0,-0.3,89,54,30,29.86,29.65,25,4,29,0.00
2013-2-5,28.7,18.6,9.6,12.3,5.7,0.0,85,58,33,30.02,29.86,12,1,12,0.00
2013-2-6,38.7,26.6,16.2,25.8,16.2,1.2,87,66,43,30.27,29.91,21,2,21,0.00
2013-2-7,27.7,17.6,8.0,6.8,2.4,-1.5,78,53,30,30.54,30.26,11,1,11,0.00
2013-2-8,17.0,14.4,11.2,14.5,10.1,-2.4,91,84,43,30.54,29.82,25,3,25,0.00
2013-2-9,20.1,16.2,12.1,18.4,14.1,10.0,100,91,89,30.11,29.65,31,8,31,0.00
2013-2-10,38.8,20.2,2.6,28.7,13.4,-0.4,98,76,44,30.35,30.11,13,1,13,0.01
2013-2-11,38.4,23.0,8.1,37.6,20.8,4.8,97,91,81,30.34,29.56,9,0,9,0.01
2013-2-12,46.1,36.7,28.7,35.2,30.8,28.0,98,80,56,29.77,29.52,28,3,28,0.31
2013-2-13,47.7,35.1,25.6,30.7,25.8,23.1,92,71,44,29.82,29.71,13,1,13,0.00
2013-2-14,44.9,34.2,26.2,28.0,25.1,22.2,91,71,43,29.98,29.69,14,1,14,0.00
2013-2-15,46.9,33.7,20.3,36.0,28.8,18.6,96,83,58,29.98,29.88,20,2,20,0.00
2013-2-16,40.6,33.9,28.4,35.4,28.7,12.4,96,82,50,29.92,29.75,13,1,13,0.00
2013-2-17,28.6,23.0,19.1,19.3,13.4,5.1,91,68,49,29.75,29.22,27,6,27,0.00
2013-2-18,34.8,23.4,14.6,12.6,4.3,-1.4,62,45,26,30.06,29.48,34,5,34,0.11
2013-2-19,43.2,32.2,17.2,42.3,18.6,-0.7,97,60,25,30.09,29.54,17,2,17,0.59
2013-2-20,42.1,33.9,27.1,41.2,26.6,17.3,97,75,60,29.65,29.43,25,5,25,0.01
2013-2-21,34.4,27.6,22.9,20.6,16.8,11.5,75,64,45,30.14,29.65,22,4,22,0.00
2013-2-22,43.4,31.3,21.2,25.3,22.3,17.9,90,71,44,30.39,30.15,13,1,13,0.00
2013-2-23,38.1,32.6,25.8,34.7,29.8,23.0,100,90,77,30.34,29.98,11,0,11,0.14
2013-2-24,34.5,31.9,29.5,33.7,31.1,28.4,97,97,96,29.98,29.75,7,0,7,0.11
2013-2-25,42.4,33.1,25.3,36.2,30.3,24.3,97,90,68,30.23,29.89,8,0,8,0.74
2013-2-26,46.9,35.2,28.4,36.4,30.3,26.6,98,84,53,30.35,30.22,14,0,14,0.00
2013-2-27,37.7,33.4,28.7,36.4,32.5,27.7,98,96,94,30.22,29.62,18,1,18,0.32
2013-2-28,39.3,35.4,33.0,37.7,34.5,32.0,98,96,93,29.62,29.52,9,1,9,0.95